White Post, Virginia
Current Conditions -  °F | °C
As of 2:15 PM on Friday 28 Nov 2014 (Local Time) from KOKV Reporting Station
Broken Clouds Broken Clouds  
Wind Chill: 28°   Ceiling: 4400
Heat Index: 36°   Visibility: 10mi
Dew Point: 16°   Wind: 12mph
Humidity: 44%   Direction: 290°WNW
Pressure: 30.25"   Gusts: NA
Location:  39.06°N, 78.1°W
Report Text: KOKV 281915Z AUTO 29010KT 10SM BKN044 02/M09 A3025 RMK AO2
Loading
Personal Weather Stations






























Interactive Weather Map New forecast layout! Learn more

10-Day Weather Forecast

Advertisements
Track Severe Weather on mobile